sensor_id;sensor_type;location;lat;lon;timestamp;temperature;humidity
4896;DHT22;2463;49.948;8.472;2024-01-30T00:00:46;1.60;99.90
4896;DHT22;2463;49.948;8.472;2024-01-30T00:03:13;1.60;99.90
4896;DHT22;2463;49.948;8.472;2024-01-30T00:05:40;1.60;99.90
4896;DHT22;2463;49.948;8.472;2024-01-30T00:08:07;1.60;99.90
4896;DHT22;2463;49.948;8.472;2024-01-30T00:10:33;1.50;99.90
4896;DHT22;2463;49.948;8.472;2024-01-30T00:13:00;1.50;99.90
4896;DHT22;2463;49.948;8.472;2024-01-30T00:15:27;1.50;99.90
4896;DHT22;2463;49.948;8.472;2024-01-30T00:17:53;2.10;99.90
4896;DHT22;2463;49.948;8.472;2024-01-30T00:20:20;1.50;99.90
4896;DHT22;2463;49.948;8.472;2024-01-30T00:22:47;1.50;99.90
4896;DHT22;2463;49.948;8.472;2024-01-30T00:25:14;1.40;99.90
4896;DHT22;2463;49.948;8.472;2024-01-30T00:27:41;1.40;99.90
4896;DHT22;2463;49.948;8.472;2024-01-30T00:30:08;1.40;99.90
4896;DHT22;2463;49.948;8.472;2024-01-30T00:32:35;1.40;99.90
4896;DHT22;2463;49.948;8.472;2024-01-30T00:35:02;1.30;99.90
4896;DHT22;2463;49.948;8.472;2024-01-30T00:37:29;1.30;99.90
4896;DHT22;2463;49.948;8.472;2024-01-30T00:39:56;1.30;99.90
4896;DHT22;2463;49.948;8.472;2024-01-30T00:42:23;1.20;99.90
4896;DHT22;2463;49.948;8.472;2024-01-30T00:44:50;1.20;99.90
4896;DHT22;2463;49.948;8.472;2024-01-30T00:47:17;1.20;99.90
4896;DHT22;2463;49.948;8.472;2024-01-30T00:49:44;1.20;99.90
4896;DHT22;2463;49.948;8.472;2024-01-30T00:52:10;1.10;99.90
4896;DHT22;2463;49.948;8.472;2024-01-30T00:54:38;1.10;99.90
4896;DHT22;2463;49.948;8.472;2024-01-30T00:57:04;1.10;99.90
4896;DHT22;2463;49.948;8.472;2024-01-30T00:59:31;1.10;99.90
4896;DHT22;2463;49.948;8.472;2024-01-30T01:01:58;1.00;99.90
4896;DHT22;2463;49.948;8.472;2024-01-30T01:04:25;1.00;99.90
4896;DHT22;2463;49.948;8.472;2024-01-30T01:06:53;0.90;99.90
4896;DHT22;2463;49.948;8.472;2024-01-30T01:09:20;0.90;99.90
4896;DHT22;2463;49.948;8.472;2024-01-30T01:11:46;0.90;99.90
4896;DHT22;2463;49.948;8.472;2024-01-30T01:14:14;0.90;99.90
4896;DHT22;2463;49.948;8.472;2024-01-30T01:16:41;0.90;99.90
4896;DHT22;2463;49.948;8.472;2024-01-30T01:19:07;0.90;99.90
4896;DHT22;2463;49.948;8.472;2024-01-30T01:21:34;0.90;99.90
4896;DHT22;2463;49.948;8.472;2024-01-30T01:24:01;0.90;99.90
4896;DHT22;2463;49.948;8.472;2024-01-30T01:26:27;0.80;99.90
4896;DHT22;2463;49.948;8.472;2024-01-30T01:28:55;0.80;99.90
4896;DHT22;2463;49.948;8.472;2024-01-30T01:31:21;0.80;99.90
4896;DHT22;2463;49.948;8.472;2024-01-30T01:33:51;0.80;99.90
4896;DHT22;2463;49.948;8.472;2024-01-30T01:36:18;0.80;99.90
4896;DHT22;2463;49.948;8.472;2024-01-30T01:38:44;0.80;99.90
4896;DHT22;2463;49.948;8.472;2024-01-30T01:41:11;0.70;99.90
4896;DHT22;2463;49.948;8.472;2024-01-30T01:43:38;0.70;99.90
4896;DHT22;2463;49.948;8.472;2024-01-30T01:46:06;0.70;99.90
4896;DHT22;2463;49.948;8.472;2024-01-30T01:48:33;0.70;99.90
4896;DHT22;2463;49.948;8.472;2024-01-30T01:51:00;0.70;99.90
4896;DHT22;2463;49.948;8.472;2024-01-30T01:53:28;0.60;99.90
4896;DHT22;2463;49.948;8.472;2024-01-30T01:55:55;0.60;99.90
4896;DHT22;2463;49.948;8.472;2024-01-30T01:58:22;0.60;99.90
4896;DHT22;2463;49.948;8.472;2024-01-30T02:00:50;0.60;99.90
4896;DHT22;2463;49.948;8.472;2024-01-30T02:03:18;0.50;99.90
4896;DHT22;2463;49.948;8.472;2024-01-30T02:05:48;0.50;99.90
4896;DHT22;2463;49.948;8.472;2024-01-30T02:08:15;0.50;99.90
4896;DHT22;2463;49.948;8.472;2024-01-30T02:10:42;0.50;99.90
4896;DHT22;2463;49.948;8.472;2024-01-30T02:13:09;0.50;99.90
4896;DHT22;2463;49.948;8.472;2024-01-30T02:15:35;0.40;99.90
4896;DHT22;2463;49.948;8.472;2024-01-30T02:18:02;0.40;99.90
4896;DHT22;2463;49.948;8.472;2024-01-30T02:20:30;0.40;99.90
4896;DHT22;2463;49.948;8.472;2024-01-30T02:22:59;0.40;99.90
4896;DHT22;2463;49.948;8.472;2024-01-30T02:25:31;0.50;99.90
4896;DHT22;2463;49.948;8.472;2024-01-30T02:27:58;0.50;99.90
4896;DHT22;2463;49.948;8.472;2024-01-30T02:30:25;0.40;99.90
4896;DHT22;2463;49.948;8.472;2024-01-30T02:32:51;0.40;99.90
4896;DHT22;2463;49.948;8.472;2024-01-30T02:35:18;0.40;99.90
4896;DHT22;2463;49.948;8.472;2024-01-30T02:37:45;0.40;99.90
4896;DHT22;2463;49.948;8.472;2024-01-30T02:40:11;0.40;99.90
4896;DHT22;2463;49.948;8.472;2024-01-30T02:42:39;0.40;99.90
4896;DHT22;2463;49.948;8.472;2024-01-30T02:45:06;0.40;99.90
4896;DHT22;2463;49.948;8.472;2024-01-30T02:47:33;0.40;99.90
4896;DHT22;2463;49.948;8.472;2024-01-30T02:49:59;0.40;99.90
4896;DHT22;2463;49.948;8.472;2024-01-30T02:52:26;0.40;99.90
4896;DHT22;2463;49.948;8.472;2024-01-30T02:54:53;0.40;99.90
4896;DHT22;2463;49.948;8.472;2024-01-30T02:57:20;0.40;99.90
4896;DHT22;2463;49.948;8.472;2024-01-30T02:59:46;0.40;99.90
4896;DHT22;2463;49.948;8.472;2024-01-30T03:02:13;0.40;99.90
4896;DHT22;2463;49.948;8.472;2024-01-30T03:04:43;0.40;99.90
4896;DHT22;2463;49.948;8.472;2024-01-30T03:07:10;0.40;99.90
4896;DHT22;2463;49.948;8.472;2024-01-30T03:09:37;0.40;99.90
4896;DHT22;2463;49.948;8.472;2024-01-30T03:12:04;0.40;99.90
4896;DHT22;2463;49.948;8.472;2024-01-30T03:14:34;0.40;99.90
4896;DHT22;2463;49.948;8.472;2024-01-30T03:17:01;0.40;99.90
4896;DHT22;2463;49.948;8.472;2024-01-30T03:19:27;0.30;99.90
4896;DHT22;2463;49.948;8.472;2024-01-30T03:21:54;0.30;99.90
4896;DHT22;2463;49.948;8.472;2024-01-30T03:24:21;0.30;99.90
4896;DHT22;2463;49.948;8.472;2024-01-30T03:26:47;0.30;99.90
4896;DHT22;2463;49.948;8.472;2024-01-30T03:29:14;0.30;99.90
4896;DHT22;2463;49.948;8.472;2024-01-30T03:31:41;0.30;99.90
4896;DHT22;2463;49.948;8.472;2024-01-30T03:34:07;0.30;99.90
4896;DHT22;2463;49.948;8.472;2024-01-30T03:36:34;0.30;99.90
4896;DHT22;2463;49.948;8.472;2024-01-30T03:39:01;0.30;99.90
4896;DHT22;2463;49.948;8.472;2024-01-30T03:41:28;0.30;99.90
4896;DHT22;2463;49.948;8.472;2024-01-30T03:43:55;0.30;99.90
4896;DHT22;2463;49.948;8.472;2024-01-30T03:46:21;0.20;99.90
4896;DHT22;2463;49.948;8.472;2024-01-30T03:48:48;0.20;99.90
4896;DHT22;2463;49.948;8.472;2024-01-30T03:51:15;0.20;99.90
4896;DHT22;2463;49.948;8.472;2024-01-30T03:53:42;0.20;99.90
4896;DHT22;2463;49.948;8.472;2024-01-30T03:56:09;0.20;99.90
4896;DHT22;2463;49.948;8.472;2024-01-30T03:58:36;0.20;99.90
4896;DHT22;2463;49.948;8.472;2024-01-30T04:01:03;0.10;99.90
4896;DHT22;2463;49.948;8.472;2024-01-30T04:03:30;0.10;99.90
4896;DHT22;2463;49.948;8.472;2024-01-30T04:05:57;0.10;99.90
4896;DHT22;2463;49.948;8.472;2024-01-30T04:08:23;0.10;99.90
4896;DHT22;2463;49.948;8.472;2024-01-30T04:10:50;0.10;99.90
4896;DHT22;2463;49.948;8.472;2024-01-30T04:13:17;0.10;99.90
4896;DHT22;2463;49.948;8.472;2024-01-30T04:15:43;0.10;99.90
4896;DHT22;2463;49.948;8.472;2024-01-30T04:18:10;0.10;99.90
4896;DHT22;2463;49.948;8.472;2024-01-30T04:20:37;0.10;99.90
4896;DHT22;2463;49.948;8.472;2024-01-30T04:23:03;0.10;99.90
4896;DHT22;2463;49.948;8.472;2024-01-30T04:25:30;0.10;99.90
4896;DHT22;2463;49.948;8.472;2024-01-30T04:27:57;0.10;99.90
4896;DHT22;2463;49.948;8.472;2024-01-30T04:30:23;0.10;99.90
4896;DHT22;2463;49.948;8.472;2024-01-30T04:32:50;0.10;99.90
4896;DHT22;2463;49.948;8.472;2024-01-30T04:35:17;0.10;99.90
4896;DHT22;2463;49.948;8.472;2024-01-30T04:37:44;0.10;99.90
4896;DHT22;2463;49.948;8.472;2024-01-30T04:40:11;0.10;99.90
4896;DHT22;2463;49.948;8.472;2024-01-30T04:42:38;0.10;99.90
4896;DHT22;2463;49.948;8.472;2024-01-30T04:45:05;0.10;99.90
4896;DHT22;2463;49.948;8.472;2024-01-30T04:47:32;0.10;99.90
4896;DHT22;2463;49.948;8.472;2024-01-30T04:49:59;0.10;99.90
4896;DHT22;2463;49.948;8.472;2024-01-30T04:52:25;0.10;99.90
4896;DHT22;2463;49.948;8.472;2024-01-30T04:54:52;0.10;99.90
4896;DHT22;2463;49.948;8.472;2024-01-30T04:57:19;0.10;99.90
4896;DHT22;2463;49.948;8.472;2024-01-30T04:59:45;0.20;99.90
4896;DHT22;2463;49.948;8.472;2024-01-30T05:02:12;0.20;99.90
4896;DHT22;2463;49.948;8.472;2024-01-30T05:04:40;0.20;99.90
4896;DHT22;2463;49.948;8.472;2024-01-30T05:07:07;0.30;99.90
4896;DHT22;2463;49.948;8.472;2024-01-30T05:09:34;0.30;99.90
4896;DHT22;2463;49.948;8.472;2024-01-30T05:12:01;0.30;99.90
4896;DHT22;2463;49.948;8.472;2024-01-30T05:14:27;0.30;99.90
4896;DHT22;2463;49.948;8.472;2024-01-30T05:16:54;0.40;99.90
4896;DHT22;2463;49.948;8.472;2024-01-30T05:19:20;0.40;99.90
4896;DHT22;2463;49.948;8.472;2024-01-30T05:21:50;0.40;99.90
4896;DHT22;2463;49.948;8.472;2024-01-30T05:24:17;0.40;99.90
4896;DHT22;2463;49.948;8.472;2024-01-30T05:26:47;0.50;99.90
4896;DHT22;2463;49.948;8.472;2024-01-30T05:29:14;0.50;99.90
4896;DHT22;2463;49.948;8.472;2024-01-30T05:31:41;0.50;99.90
4896;DHT22;2463;49.948;8.472;2024-01-30T05:34:08;0.50;99.90
4896;DHT22;2463;49.948;8.472;2024-01-30T05:36:35;0.50;99.90
4896;DHT22;2463;49.948;8.472;2024-01-30T05:39:02;0.50;99.90
4896;DHT22;2463;49.948;8.472;2024-01-30T05:41:31;0.50;99.90
4896;DHT22;2463;49.948;8.472;2024-01-30T05:43:58;0.50;99.90
4896;DHT22;2463;49.948;8.472;2024-01-30T05:46:25;0.50;99.90
4896;DHT22;2463;49.948;8.472;2024-01-30T05:48:52;0.50;99.90
4896;DHT22;2463;49.948;8.472;2024-01-30T05:51:19;0.50;99.90
4896;DHT22;2463;49.948;8.472;2024-01-30T05:53:45;0.40;99.90
4896;DHT22;2463;49.948;8.472;2024-01-30T05:56:12;0.40;99.90
4896;DHT22;2463;49.948;8.472;2024-01-30T05:58:38;0.30;99.90
4896;DHT22;2463;49.948;8.472;2024-01-30T06:01:08;0.30;99.90
4896;DHT22;2463;49.948;8.472;2024-01-30T06:03:35;0.30;99.90
4896;DHT22;2463;49.948;8.472;2024-01-30T06:06:02;0.30;99.90
4896;DHT22;2463;49.948;8.472;2024-01-30T06:08:29;0.20;99.90
4896;DHT22;2463;49.948;8.472;2024-01-30T06:10:56;0.20;99.90
4896;DHT22;2463;49.948;8.472;2024-01-30T06:13:22;0.20;99.90
4896;DHT22;2463;49.948;8.472;2024-01-30T06:15:49;0.20;99.90
4896;DHT22;2463;49.948;8.472;2024-01-30T06:18:16;0.20;99.90
4896;DHT22;2463;49.948;8.472;2024-01-30T06:20:42;0.10;99.90
4896;DHT22;2463;49.948;8.472;2024-01-30T06:23:09;0.10;99.90
4896;DHT22;2463;49.948;8.472;2024-01-30T06:25:36;0.10;99.90
4896;DHT22;2463;49.948;8.472;2024-01-30T06:28:02;0.10;99.90
4896;DHT22;2463;49.948;8.472;2024-01-30T06:30:29;0.00;99.90
4896;DHT22;2463;49.948;8.472;2024-01-30T06:32:56;0.00;99.90
4896;DHT22;2463;49.948;8.472;2024-01-30T06:35:24;0.00;99.90
4896;DHT22;2463;49.948;8.472;2024-01-30T06:37:51;0.00;99.90
4896;DHT22;2463;49.948;8.472;2024-01-30T06:40:17;0.00;99.90
4896;DHT22;2463;49.948;8.472;2024-01-30T06:42:44;0.00;99.90
4896;DHT22;2463;49.948;8.472;2024-01-30T06:45:11;0.00;99.90
4896;DHT22;2463;49.948;8.472;2024-01-30T06:47:37;0.00;99.90
4896;DHT22;2463;49.948;8.472;2024-01-30T06:50:04;-0.10;99.90
4896;DHT22;2463;49.948;8.472;2024-01-30T06:52:31;-0.10;99.90
4896;DHT22;2463;49.948;8.472;2024-01-30T06:54:58;0.00;99.90
4896;DHT22;2463;49.948;8.472;2024-01-30T06:57:25;-0.10;99.90
4896;DHT22;2463;49.948;8.472;2024-01-30T06:59:54;-0.10;99.90
4896;DHT22;2463;49.948;8.472;2024-01-30T07:02:22;-0.10;99.90
4896;DHT22;2463;49.948;8.472;2024-01-30T07:04:48;-0.10;99.90
4896;DHT22;2463;49.948;8.472;2024-01-30T07:07:16;-0.10;99.90
4896;DHT22;2463;49.948;8.472;2024-01-30T07:09:43;-0.10;99.90
4896;DHT22;2463;49.948;8.472;2024-01-30T07:12:09;-0.10;99.90
4896;DHT22;2463;49.948;8.472;2024-01-30T07:14:36;-0.10;99.90
4896;DHT22;2463;49.948;8.472;2024-01-30T07:17:03;-0.10;99.90
4896;DHT22;2463;49.948;8.472;2024-01-30T07:19:30;0.00;99.90
4896;DHT22;2463;49.948;8.472;2024-01-30T07:21:57;0.00;99.90
4896;DHT22;2463;49.948;8.472;2024-01-30T07:24:23;0.10;99.90
4896;DHT22;2463;49.948;8.472;2024-01-30T07:26:50;0.10;99.90
4896;DHT22;2463;49.948;8.472;2024-01-30T07:29:18;0.10;99.90
4896;DHT22;2463;49.948;8.472;2024-01-30T07:31:44;0.10;99.90
4896;DHT22;2463;49.948;8.472;2024-01-30T07:34:11;0.20;99.90
4896;DHT22;2463;49.948;8.472;2024-01-30T07:36:38;0.30;99.90
4896;DHT22;2463;49.948;8.472;2024-01-30T07:39:05;0.40;99.90
4896;DHT22;2463;49.948;8.472;2024-01-30T07:41:32;0.40;99.90
4896;DHT22;2463;49.948;8.472;2024-01-30T07:43:59;0.50;99.90
4896;DHT22;2463;49.948;8.472;2024-01-30T07:46:25;0.60;99.90
4896;DHT22;2463;49.948;8.472;2024-01-30T07:48:52;0.70;99.90
4896;DHT22;2463;49.948;8.472;2024-01-30T07:51:21;0.90;99.90
4896;DHT22;2463;49.948;8.472;2024-01-30T07:53:47;1.00;99.90
4896;DHT22;2463;49.948;8.472;2024-01-30T07:56:14;1.10;99.90
4896;DHT22;2463;49.948;8.472;2024-01-30T07:58:42;1.20;99.90
4896;DHT22;2463;49.948;8.472;2024-01-30T08:01:09;1.30;99.90
4896;DHT22;2463;49.948;8.472;2024-01-30T08:03:35;1.50;99.90
4896;DHT22;2463;49.948;8.472;2024-01-30T08:06:03;1.60;99.90
4896;DHT22;2463;49.948;8.472;2024-01-30T08:08:30;1.70;99.90
4896;DHT22;2463;49.948;8.472;2024-01-30T08:10:57;1.90;99.90
4896;DHT22;2463;49.948;8.472;2024-01-30T08:13:23;2.00;99.90
4896;DHT22;2463;49.948;8.472;2024-01-30T08:15:50;2.20;99.90
4896;DHT22;2463;49.948;8.472;2024-01-30T08:18:17;2.30;99.90
4896;DHT22;2463;49.948;8.472;2024-01-30T08:20:43;2.50;99.90
4896;DHT22;2463;49.948;8.472;2024-01-30T08:23:10;2.60;99.90
4896;DHT22;2463;49.948;8.472;2024-01-30T08:25:37;2.80;99.90
4896;DHT22;2463;49.948;8.472;2024-01-30T08:28:04;2.90;99.90
4896;DHT22;2463;49.948;8.472;2024-01-30T08:30:30;3.10;99.90
4896;DHT22;2463;49.948;8.472;2024-01-30T08:32:57;3.30;99.90
4896;DHT22;2463;49.948;8.472;2024-01-30T08:35:25;3.50;99.90
4896;DHT22;2463;49.948;8.472;2024-01-30T08:37:52;3.60;99.90
4896;DHT22;2463;49.948;8.472;2024-01-30T08:40:18;3.80;99.90
4896;DHT22;2463;49.948;8.472;2024-01-30T08:42:45;4.00;99.90
4896;DHT22;2463;49.948;8.472;2024-01-30T08:45:12;4.20;99.90
4896;DHT22;2463;49.948;8.472;2024-01-30T08:47:39;4.30;99.90
4896;DHT22;2463;49.948;8.472;2024-01-30T08:50:07;4.30;99.90
4896;DHT22;2463;49.948;8.472;2024-01-30T08:52:34;4.40;99.90
4896;DHT22;2463;49.948;8.472;2024-01-30T08:55:00;4.60;99.90
4896;DHT22;2463;49.948;8.472;2024-01-30T08:57:27;4.60;99.90
4896;DHT22;2463;49.948;8.472;2024-01-30T08:59:55;4.70;99.90
4896;DHT22;2463;49.948;8.472;2024-01-30T09:02:21;4.60;99.90
4896;DHT22;2463;49.948;8.472;2024-01-30T09:07:19;4.50;99.90
4896;DHT22;2463;49.948;8.472;2024-01-30T09:09:46;4.40;99.90
4896;DHT22;2463;49.948;8.472;2024-01-30T09:12:13;4.30;99.90
4896;DHT22;2463;49.948;8.472;2024-01-30T09:14:41;4.30;99.90
4896;DHT22;2463;49.948;8.472;2024-01-30T09:17:08;4.40;99.90
4896;DHT22;2463;49.948;8.472;2024-01-30T09:19:35;4.40;99.90
4896;DHT22;2463;49.948;8.472;2024-01-30T09:22:02;4.60;99.90
4896;DHT22;2463;49.948;8.472;2024-01-30T09:24:29;4.60;99.90
4896;DHT22;2463;49.948;8.472;2024-01-30T09:26:56;4.70;99.90
4896;DHT22;2463;49.948;8.472;2024-01-30T09:29:22;4.90;99.90
4896;DHT22;2463;49.948;8.472;2024-01-30T09:31:49;5.10;99.90
4896;DHT22;2463;49.948;8.472;2024-01-30T09:34:16;5.30;99.90
4896;DHT22;2463;49.948;8.472;2024-01-30T09:36:43;5.60;99.90
4896;DHT22;2463;49.948;8.472;2024-01-30T09:39:09;6.10;99.90
4896;DHT22;2463;49.948;8.472;2024-01-30T09:41:47;6.30;99.90
4896;DHT22;2463;49.948;8.472;2024-01-30T09:44:16;6.70;99.90
4896;DHT22;2463;49.948;8.472;2024-01-30T09:46:43;7.10;99.90
4896;DHT22;2463;49.948;8.472;2024-01-30T09:49:12;7.50;99.90
4896;DHT22;2463;49.948;8.472;2024-01-30T09:51:43;7.80;99.90
4896;DHT22;2463;49.948;8.472;2024-01-30T09:54:10;8.00;99.90
4896;DHT22;2463;49.948;8.472;2024-01-30T09:56:40;8.00;99.90
4896;DHT22;2463;49.948;8.472;2024-01-30T09:59:06;8.00;99.90
4896;DHT22;2463;49.948;8.472;2024-01-30T10:01:34;8.20;99.90
4896;DHT22;2463;49.948;8.472;2024-01-30T10:04:01;8.40;99.90
4896;DHT22;2463;49.948;8.472;2024-01-30T10:06:29;8.40;99.90
4896;DHT22;2463;49.948;8.472;2024-01-30T10:08:56;8.40;99.90
4896;DHT22;2463;49.948;8.472;2024-01-30T10:11:22;8.60;99.90
4896;DHT22;2463;49.948;8.472;2024-01-30T10:13:51;9.00;99.90
4896;DHT22;2463;49.948;8.472;2024-01-30T10:16:18;9.40;99.90
4896;DHT22;2463;49.948;8.472;2024-01-30T10:18:45;9.50;99.90
4896;DHT22;2463;49.948;8.472;2024-01-30T10:21:12;9.60;99.90
4896;DHT22;2463;49.948;8.472;2024-01-30T10:23:39;9.50;99.90
4896;DHT22;2463;49.948;8.472;2024-01-30T10:26:07;9.30;99.90
4896;DHT22;2463;49.948;8.472;2024-01-30T10:28:34;9.00;99.90
4896;DHT22;2463;49.948;8.472;2024-01-30T10:31:01;8.90;99.90
4896;DHT22;2463;49.948;8.472;2024-01-30T10:33:32;8.80;99.90
4896;DHT22;2463;49.948;8.472;2024-01-30T10:36:02;8.90;99.90
4896;DHT22;2463;49.948;8.472;2024-01-30T10:38:30;8.90;99.90
4896;DHT22;2463;49.948;8.472;2024-01-30T10:40:59;8.90;99.90
4896;DHT22;2463;49.948;8.472;2024-01-30T10:43:35;9.00;99.90
4896;DHT22;2463;49.948;8.472;2024-01-30T10:46:18;9.20;99.90
4896;DHT22;2463;49.948;8.472;2024-01-30T10:49:04;9.60;99.90
4896;DHT22;2463;49.948;8.472;2024-01-30T10:51:32;10.30;99.90
4896;DHT22;2463;49.948;8.472;2024-01-30T10:53:58;10.50;99.90
4896;DHT22;2463;49.948;8.472;2024-01-30T10:56:26;10.70;99.90
4896;DHT22;2463;49.948;8.472;2024-01-30T10:58:54;10.70;99.90
4896;DHT22;2463;49.948;8.472;2024-01-30T11:01:23;11.30;99.90
4896;DHT22;2463;49.948;8.472;2024-01-30T11:03:54;12.50;99.90
4896;DHT22;2463;49.948;8.472;2024-01-30T11:06:25;14.10;99.90
4896;DHT22;2463;49.948;8.472;2024-01-30T11:09:06;15.60;99.90
4896;DHT22;2463;49.948;8.472;2024-01-30T11:14:16;15.20;99.90
4896;DHT22;2463;49.948;8.472;2024-01-30T11:16:49;14.70;99.90
4896;DHT22;2463;49.948;8.472;2024-01-30T11:19:22;14.30;99.90
4896;DHT22;2463;49.948;8.472;2024-01-30T11:21:51;14.30;99.90
4896;DHT22;2463;49.948;8.472;2024-01-30T11:24:20;14.70;99.90
4896;DHT22;2463;49.948;8.472;2024-01-30T11:26:55;14.70;99.90
4896;DHT22;2463;49.948;8.472;2024-01-30T11:29:27;14.00;99.90
4896;DHT22;2463;49.948;8.472;2024-01-30T11:32:03;13.40;99.90
4896;DHT22;2463;49.948;8.472;2024-01-30T11:34:30;12.50;99.90
4896;DHT22;2463;49.948;8.472;2024-01-30T11:36:59;11.80;99.90
4896;DHT22;2463;49.948;8.472;2024-01-30T11:39:26;11.30;99.90
4896;DHT22;2463;49.948;8.472;2024-01-30T11:41:54;11.00;99.90
4896;DHT22;2463;49.948;8.472;2024-01-30T11:44:21;10.60;99.90
4896;DHT22;2463;49.948;8.472;2024-01-30T11:46:49;10.40;99.90
4896;DHT22;2463;49.948;8.472;2024-01-30T11:49:16;10.10;99.90
4896;DHT22;2463;49.948;8.472;2024-01-30T11:51:47;9.80;99.90
4896;DHT22;2463;49.948;8.472;2024-01-30T11:54:17;9.60;99.90
4896;DHT22;2463;49.948;8.472;2024-01-30T11:56:43;9.60;99.90
4896;DHT22;2463;49.948;8.472;2024-01-30T11:59:10;9.50;99.90
4896;DHT22;2463;49.948;8.472;2024-01-30T12:01:37;9.60;99.90
4896;DHT22;2463;49.948;8.472;2024-01-30T12:04:04;9.60;99.90
4896;DHT22;2463;49.948;8.472;2024-01-30T12:06:36;9.70;99.90
4896;DHT22;2463;49.948;8.472;2024-01-30T12:09:03;9.90;99.90
4896;DHT22;2463;49.948;8.472;2024-01-30T12:11:47;10.30;99.90
4896;DHT22;2463;49.948;8.472;2024-01-30T12:14:14;10.90;99.90
4896;DHT22;2463;49.948;8.472;2024-01-30T12:16:41;11.50;99.90
4896;DHT22;2463;49.948;8.472;2024-01-30T12:19:08;11.90;99.90
4896;DHT22;2463;49.948;8.472;2024-01-30T12:21:35;12.50;99.90
4896;DHT22;2463;49.948;8.472;2024-01-30T12:24:02;13.30;99.90
4896;DHT22;2463;49.948;8.472;2024-01-30T12:26:29;13.90;99.90
4896;DHT22;2463;49.948;8.472;2024-01-30T12:28:56;14.20;99.90
4896;DHT22;2463;49.948;8.472;2024-01-30T12:31:31;14.80;99.90
4896;DHT22;2463;49.948;8.472;2024-01-30T12:34:01;15.30;99.90
4896;DHT22;2463;49.948;8.472;2024-01-30T12:36:28;15.50;99.90
4896;DHT22;2463;49.948;8.472;2024-01-30T12:38:56;15.50;99.90
4896;DHT22;2463;49.948;8.472;2024-01-30T12:41:25;15.60;99.90
4896;DHT22;2463;49.948;8.472;2024-01-30T12:43:57;15.60;99.90
4896;DHT22;2463;49.948;8.472;2024-01-30T12:46:29;15.60;99.90
4896;DHT22;2463;49.948;8.472;2024-01-30T12:48:56;15.50;99.90
4896;DHT22;2463;49.948;8.472;2024-01-30T12:51:24;15.40;99.90
4896;DHT22;2463;49.948;8.472;2024-01-30T12:53:51;15.20;99.90
4896;DHT22;2463;49.948;8.472;2024-01-30T12:56:17;15.20;99.90
4896;DHT22;2463;49.948;8.472;2024-01-30T12:58:44;15.20;99.90
4896;DHT22;2463;49.948;8.472;2024-01-30T13:01:15;15.80;99.90
4896;DHT22;2463;49.948;8.472;2024-01-30T13:03:42;16.50;99.90
4896;DHT22;2463;49.948;8.472;2024-01-30T13:06:09;17.30;99.90
4896;DHT22;2463;49.948;8.472;2024-01-30T13:08:36;17.50;99.90
4896;DHT22;2463;49.948;8.472;2024-01-30T13:11:03;17.40;99.90
4896;DHT22;2463;49.948;8.472;2024-01-30T13:13:31;17.30;99.90
4896;DHT22;2463;49.948;8.472;2024-01-30T13:15:57;17.10;99.90
4896;DHT22;2463;49.948;8.472;2024-01-30T13:18:24;16.50;99.90
4896;DHT22;2463;49.948;8.472;2024-01-30T13:20:51;16.10;99.90
4896;DHT22;2463;49.948;8.472;2024-01-30T13:23:19;15.80;99.90
4896;DHT22;2463;49.948;8.472;2024-01-30T13:25:45;15.50;99.90
4896;DHT22;2463;49.948;8.472;2024-01-30T13:28:12;15.20;99.90
4896;DHT22;2463;49.948;8.472;2024-01-30T13:30:39;14.80;99.90
4896;DHT22;2463;49.948;8.472;2024-01-30T13:33:05;14.30;99.90
4896;DHT22;2463;49.948;8.472;2024-01-30T13:35:32;13.90;99.90
4896;DHT22;2463;49.948;8.472;2024-01-30T13:37:59;13.70;99.90
4896;DHT22;2463;49.948;8.472;2024-01-30T13:40:26;13.50;99.90
4896;DHT22;2463;49.948;8.472;2024-01-30T13:42:52;13.50;99.90
4896;DHT22;2463;49.948;8.472;2024-01-30T13:45:19;13.50;99.90
4896;DHT22;2463;49.948;8.472;2024-01-30T13:47:49;13.40;99.90
4896;DHT22;2463;49.948;8.472;2024-01-30T13:50:16;13.20;99.90
4896;DHT22;2463;49.948;8.472;2024-01-30T13:52:43;13.10;99.90
4896;DHT22;2463;49.948;8.472;2024-01-30T13:55:11;13.00;99.90
4896;DHT22;2463;49.948;8.472;2024-01-30T13:57:39;13.00;99.90
4896;DHT22;2463;49.948;8.472;2024-01-30T14:00:06;12.90;99.90
4896;DHT22;2463;49.948;8.472;2024-01-30T14:02:33;12.80;99.90
4896;DHT22;2463;49.948;8.472;2024-01-30T14:05:00;12.80;99.90
4896;DHT22;2463;49.948;8.472;2024-01-30T14:07:27;12.70;99.90
4896;DHT22;2463;49.948;8.472;2024-01-30T14:09:54;12.60;99.90
4896;DHT22;2463;49.948;8.472;2024-01-30T14:12:21;12.50;99.90
4896;DHT22;2463;49.948;8.472;2024-01-30T14:14:48;12.30;99.90
4896;DHT22;2463;49.948;8.472;2024-01-30T14:17:15;12.10;99.90
4896;DHT22;2463;49.948;8.472;2024-01-30T14:19:41;12.00;99.90
4896;DHT22;2463;49.948;8.472;2024-01-30T14:22:08;11.90;99.90
4896;DHT22;2463;49.948;8.472;2024-01-30T14:24:35;11.90;99.90
4896;DHT22;2463;49.948;8.472;2024-01-30T14:27:01;11.90;99.90
4896;DHT22;2463;49.948;8.472;2024-01-30T14:29:28;12.00;99.90
4896;DHT22;2463;49.948;8.472;2024-01-30T14:31:54;12.00;99.90
4896;DHT22;2463;49.948;8.472;2024-01-30T14:34:22;12.10;99.90
4896;DHT22;2463;49.948;8.472;2024-01-30T14:36:49;12.10;99.90
4896;DHT22;2463;49.948;8.472;2024-01-30T14:39:15;12.10;99.90
4896;DHT22;2463;49.948;8.472;2024-01-30T14:41:42;12.20;99.90
4896;DHT22;2463;49.948;8.472;2024-01-30T14:44:09;12.10;99.90
4896;DHT22;2463;49.948;8.472;2024-01-30T14:46:36;12.10;99.90
4896;DHT22;2463;49.948;8.472;2024-01-30T14:49:03;12.00;99.90
4896;DHT22;2463;49.948;8.472;2024-01-30T14:51:34;12.00;99.90
4896;DHT22;2463;49.948;8.472;2024-01-30T14:54:01;12.00;99.90
4896;DHT22;2463;49.948;8.472;2024-01-30T14:56:28;11.90;99.90
4896;DHT22;2463;49.948;8.472;2024-01-30T14:58:55;11.90;99.90
4896;DHT22;2463;49.948;8.472;2024-01-30T15:01:22;11.80;99.90
4896;DHT22;2463;49.948;8.472;2024-01-30T15:03:49;11.60;99.90
4896;DHT22;2463;49.948;8.472;2024-01-30T15:06:18;11.50;99.90
4896;DHT22;2463;49.948;8.472;2024-01-30T15:08:45;11.40;99.90
4896;DHT22;2463;49.948;8.472;2024-01-30T15:11:12;11.30;99.90
4896;DHT22;2463;49.948;8.472;2024-01-30T15:13:39;11.20;99.90
4896;DHT22;2463;49.948;8.472;2024-01-30T15:16:05;11.10;99.90
4896;DHT22;2463;49.948;8.472;2024-01-30T15:18:32;11.00;99.90
4896;DHT22;2463;49.948;8.472;2024-01-30T15:20:59;11.00;99.90
4896;DHT22;2463;49.948;8.472;2024-01-30T15:23:26;11.00;99.90
4896;DHT22;2463;49.948;8.472;2024-01-30T15:25:53;11.00;99.90
4896;DHT22;2463;49.948;8.472;2024-01-30T15:28:33;11.00;99.90
4896;DHT22;2463;49.948;8.472;2024-01-30T15:31:00;10.90;99.90
4896;DHT22;2463;49.948;8.472;2024-01-30T15:33:27;10.90;99.90
4896;DHT22;2463;49.948;8.472;2024-01-30T15:35:55;10.90;99.90
4896;DHT22;2463;49.948;8.472;2024-01-30T15:38:22;10.80;99.90
4896;DHT22;2463;49.948;8.472;2024-01-30T15:40:48;10.70;99.90
4896;DHT22;2463;49.948;8.472;2024-01-30T15:43:15;10.70;99.90
4896;DHT22;2463;49.948;8.472;2024-01-30T15:45:42;10.70;99.90
4896;DHT22;2463;49.948;8.472;2024-01-30T15:48:08;10.70;99.90
4896;DHT22;2463;49.948;8.472;2024-01-30T15:50:35;10.60;99.90
4896;DHT22;2463;49.948;8.472;2024-01-30T15:53:02;10.60;99.90
4896;DHT22;2463;49.948;8.472;2024-01-30T15:55:28;10.50;99.90
4896;DHT22;2463;49.948;8.472;2024-01-30T15:57:56;10.50;99.90
4896;DHT22;2463;49.948;8.472;2024-01-30T16:00:23;10.40;99.90
4896;DHT22;2463;49.948;8.472;2024-01-30T16:02:50;10.40;99.90
4896;DHT22;2463;49.948;8.472;2024-01-30T16:05:17;10.40;99.90
4896;DHT22;2463;49.948;8.472;2024-01-30T16:07:44;10.30;99.90
4896;DHT22;2463;49.948;8.472;2024-01-30T16:10:11;10.30;99.90
4896;DHT22;2463;49.948;8.472;2024-01-30T16:12:43;10.20;99.90
4896;DHT22;2463;49.948;8.472;2024-01-30T16:15:13;10.20;99.90
4896;DHT22;2463;49.948;8.472;2024-01-30T16:17:40;10.20;99.90